Ravels, Belgium
Current Conditions -  °F | °C
As of 4:25 PM on Thursday 23 Oct 2014 (Local Time) from EHGR Reporting Station
Overcast Overcast  
Wind Chill: 14°   Ceiling: 4400
Heat Index: 14°   Visibility: 6mi
Dew Point: 10°   Wind: 9mph
Humidity: 77%   Direction: 210°SSW
Pressure: 30.15"   Gusts: NA
Location:  51.37°N, 4.99°E
Report Text: EHGR 231425Z AUTO 21008KT 9999 OVC044 14/10 Q1021 BLU 21007KT 9999 SCT030 BKN100 TEMPO SCT023 BKN030
Loading
Personal Weather Stations






























Interactive Weather Map
Tropical Storm Tracking
New forecast layout! Learn more

10-Day Weather Forecast

Advertisements
Track Severe Weather on mobile